sensor_id;sensor_type;location;lat;lon;timestamp;pressure;altitude;pressure_sealevel;temperature
71205;BMP180;58935;54.498;18.544;2024-02-21T00:01:03;100709.20;;;5.50
71205;BMP180;58935;54.498;18.544;2024-02-21T00:03:31;100708.40;;;5.50
71205;BMP180;58935;54.498;18.544;2024-02-21T00:05:57;100706.00;;;5.50
71205;BMP180;58935;54.498;18.544;2024-02-21T00:08:27;100704.00;;;5.50
71205;BMP180;58935;54.498;18.544;2024-02-21T00:10:57;100702.20;;;5.50
71205;BMP180;58935;54.498;18.544;2024-02-21T00:13:22;100694.40;;;5.50
71205;BMP180;58935;54.498;18.544;2024-02-21T00:15:48;100691.80;;;5.50
71205;BMP180;58935;54.498;18.544;2024-02-21T00:18:13;100682.60;;;5.50
71205;BMP180;58935;54.498;18.544;2024-02-21T00:20:39;100677.00;;;5.58
71205;BMP180;58935;54.498;18.544;2024-02-21T00:23:04;100671.40;;;5.60
71205;BMP180;58935;54.498;18.544;2024-02-21T00:25:29;100668.20;;;5.60
71205;BMP180;58935;54.498;18.544;2024-02-21T00:27:55;100670.00;;;5.60
71205;BMP180;58935;54.498;18.544;2024-02-21T00:30:21;100662.40;;;5.62
71205;BMP180;58935;54.498;18.544;2024-02-21T00:32:47;100667.40;;;5.60
71205;BMP180;58935;54.498;18.544;2024-02-21T00:35:14;100674.00;;;5.60
71205;BMP180;58935;54.498;18.544;2024-02-21T00:37:39;100666.00;;;5.60
71205;BMP180;58935;54.498;18.544;2024-02-21T00:40:05;100665.80;;;5.60
71205;BMP180;58935;54.498;18.544;2024-02-21T00:42:31;100656.00;;;5.52
71205;BMP180;58935;54.498;18.544;2024-02-21T00:45:01;100663.00;;;5.50
71205;BMP180;58935;54.498;18.544;2024-02-21T00:47:27;100663.20;;;5.50
71205;BMP180;58935;54.498;18.544;2024-02-21T00:49:52;100659.20;;;5.50
71205;BMP180;58935;54.498;18.544;2024-02-21T00:52:20;100656.20;;;5.50
71205;BMP180;58935;54.498;18.544;2024-02-21T00:54:49;100652.80;;;5.50
71205;BMP180;58935;54.498;18.544;2024-02-21T00:57:15;100656.20;;;5.50
71205;BMP180;58935;54.498;18.544;2024-02-21T00:59:42;100648.00;;;5.50
71205;BMP180;58935;54.498;18.544;2024-02-21T01:02:08;100641.80;;;5.50
71205;BMP180;58935;54.498;18.544;2024-02-21T01:04:36;100641.60;;;5.50
71205;BMP180;58935;54.498;18.544;2024-02-21T01:07:02;100645.20;;;5.50
71205;BMP180;58935;54.498;18.544;2024-02-21T01:09:27;100636.40;;;5.50
71205;BMP180;58935;54.498;18.544;2024-02-21T01:11:53;100637.40;;;5.50
71205;BMP180;58935;54.498;18.544;2024-02-21T01:14:18;100637.80;;;5.50
71205;BMP180;58935;54.498;18.544;2024-02-21T01:16:44;100634.40;;;5.50
71205;BMP180;58935;54.498;18.544;2024-02-21T01:19:09;100623.00;;;5.50
71205;BMP180;58935;54.498;18.544;2024-02-21T01:21:34;100623.80;;;5.50
71205;BMP180;58935;54.498;18.544;2024-02-21T01:24:00;100620.40;;;5.54
71205;BMP180;58935;54.498;18.544;2024-02-21T01:26:25;100619.60;;;5.60
71205;BMP180;58935;54.498;18.544;2024-02-21T01:28:51;100618.80;;;5.60
71205;BMP180;58935;54.498;18.544;2024-02-21T01:31:16;100612.60;;;5.60
71205;BMP180;58935;54.498;18.544;2024-02-21T01:33:41;100615.40;;;5.60
71205;BMP180;58935;54.498;18.544;2024-02-21T01:36:08;100615.60;;;5.60
71205;BMP180;58935;54.498;18.544;2024-02-21T01:38:33;100609.80;;;5.60
71205;BMP180;58935;54.498;18.544;2024-02-21T01:40:59;100610.40;;;5.60
71205;BMP180;58935;54.498;18.544;2024-02-21T01:43:24;100610.40;;;5.60
71205;BMP180;58935;54.498;18.544;2024-02-21T01:45:53;100607.40;;;5.60
71205;BMP180;58935;54.498;18.544;2024-02-21T01:48:23;100609.80;;;5.66
71205;BMP180;58935;54.498;18.544;2024-02-21T01:50:50;100610.00;;;5.70
71205;BMP180;58935;54.498;18.544;2024-02-21T01:53:23;100608.00;;;5.70
71205;BMP180;58935;54.498;18.544;2024-02-21T01:55:50;100603.60;;;5.70
71205;BMP180;58935;54.498;18.544;2024-02-21T01:58:17;100599.60;;;5.70
71205;BMP180;58935;54.498;18.544;2024-02-21T02:00:46;100591.60;;;5.70
71205;BMP180;58935;54.498;18.544;2024-02-21T02:03:13;100590.60;;;5.70
71205;BMP180;58935;54.498;18.544;2024-02-21T02:05:46;100584.20;;;5.70
71205;BMP180;58935;54.498;18.544;2024-02-21T02:08:15;100577.40;;;5.74
71205;BMP180;58935;54.498;18.544;2024-02-21T02:10:42;100573.40;;;5.80
71205;BMP180;58935;54.498;18.544;2024-02-21T02:13:11;100574.60;;;5.80
71205;BMP180;58935;54.498;18.544;2024-02-21T02:15:42;100568.80;;;5.80
71205;BMP180;58935;54.498;18.544;2024-02-21T02:18:09;100566.60;;;5.80
71205;BMP180;58935;54.498;18.544;2024-02-21T02:20:36;100570.20;;;5.80
71205;BMP180;58935;54.498;18.544;2024-02-21T02:23:11;100572.40;;;5.80
71205;BMP180;58935;54.498;18.544;2024-02-21T02:25:38;100567.60;;;5.80
71205;BMP180;58935;54.498;18.544;2024-02-21T02:28:05;100574.00;;;5.80
71205;BMP180;58935;54.498;18.544;2024-02-21T02:30:35;100569.00;;;5.82
71205;BMP180;58935;54.498;18.544;2024-02-21T02:33:04;100562.80;;;5.88
71205;BMP180;58935;54.498;18.544;2024-02-21T02:35:33;100559.20;;;5.90
71205;BMP180;58935;54.498;18.544;2024-02-21T02:38:03;100560.20;;;5.90
71205;BMP180;58935;54.498;18.544;2024-02-21T02:40:29;100552.80;;;5.90
71205;BMP180;58935;54.498;18.544;2024-02-21T02:42:55;100547.60;;;5.90
71205;BMP180;58935;54.498;18.544;2024-02-21T02:45:23;100540.20;;;6.00
71205;BMP180;58935;54.498;18.544;2024-02-21T02:47:49;100541.40;;;6.00
71205;BMP180;58935;54.498;18.544;2024-02-21T02:50:15;100539.40;;;6.00
71205;BMP180;58935;54.498;18.544;2024-02-21T02:52:41;100534.40;;;6.00
71205;BMP180;58935;54.498;18.544;2024-02-21T02:55:09;100529.20;;;6.10
71205;BMP180;58935;54.498;18.544;2024-02-21T02:57:34;100528.60;;;6.10
71205;BMP180;58935;54.498;18.544;2024-02-21T03:00:03;100528.60;;;6.10
71205;BMP180;58935;54.498;18.544;2024-02-21T03:02:31;100527.60;;;6.10
71205;BMP180;58935;54.498;18.544;2024-02-21T03:04:57;100523.20;;;6.10
71205;BMP180;58935;54.498;18.544;2024-02-21T03:07:25;100519.00;;;6.10
71205;BMP180;58935;54.498;18.544;2024-02-21T03:09:50;100511.80;;;6.10
71205;BMP180;58935;54.498;18.544;2024-02-21T03:12:16;100512.60;;;6.10
71205;BMP180;58935;54.498;18.544;2024-02-21T03:14:50;100513.80;;;6.20
71205;BMP180;58935;54.498;18.544;2024-02-21T03:17:19;100513.20;;;6.20
71205;BMP180;58935;54.498;18.544;2024-02-21T03:19:45;100504.80;;;6.20
71205;BMP180;58935;54.498;18.544;2024-02-21T03:22:10;100508.00;;;6.20
71205;BMP180;58935;54.498;18.544;2024-02-21T03:24:36;100512.20;;;6.20
71205;BMP180;58935;54.498;18.544;2024-02-21T03:27:01;100506.00;;;6.20
71205;BMP180;58935;54.498;18.544;2024-02-21T03:29:27;100507.00;;;6.20
71205;BMP180;58935;54.498;18.544;2024-02-21T03:31:52;100504.20;;;6.20
71205;BMP180;58935;54.498;18.544;2024-02-21T03:34:20;100501.20;;;6.20
71205;BMP180;58935;54.498;18.544;2024-02-21T03:36:45;100499.80;;;6.20
71205;BMP180;58935;54.498;18.544;2024-02-21T03:39:10;100501.20;;;6.20
71205;BMP180;58935;54.498;18.544;2024-02-21T03:41:36;100496.80;;;6.22
71205;BMP180;58935;54.498;18.544;2024-02-21T03:44:02;100493.60;;;6.28
71205;BMP180;58935;54.498;18.544;2024-02-21T03:46:30;100488.60;;;6.26
71205;BMP180;58935;54.498;18.544;2024-02-21T03:48:59;100488.80;;;6.30
71205;BMP180;58935;54.498;18.544;2024-02-21T03:51:26;100480.40;;;6.28
71205;BMP180;58935;54.498;18.544;2024-02-21T03:53:51;100483.60;;;6.30
71205;BMP180;58935;54.498;18.544;2024-02-21T03:56:20;100484.60;;;6.30
71205;BMP180;58935;54.498;18.544;2024-02-21T03:58:50;100483.00;;;6.30
71205;BMP180;58935;54.498;18.544;2024-02-21T04:01:19;100480.40;;;6.30
71205;BMP180;58935;54.498;18.544;2024-02-21T04:03:47;100474.40;;;6.30
71205;BMP180;58935;54.498;18.544;2024-02-21T04:06:12;100468.80;;;6.30
71205;BMP180;58935;54.498;18.544;2024-02-21T04:08:38;100473.20;;;6.30
71205;BMP180;58935;54.498;18.544;2024-02-21T04:11:04;100465.60;;;6.30
71205;BMP180;58935;54.498;18.544;2024-02-21T04:13:29;100468.20;;;6.30
71205;BMP180;58935;54.498;18.544;2024-02-21T04:15:54;100461.40;;;6.30
71205;BMP180;58935;54.498;18.544;2024-02-21T04:18:20;100460.40;;;6.30
71205;BMP180;58935;54.498;18.544;2024-02-21T04:20:46;100456.60;;;6.30
71205;BMP180;58935;54.498;18.544;2024-02-21T04:23:11;100461.00;;;6.30
71205;BMP180;58935;54.498;18.544;2024-02-21T04:25:39;100461.20;;;6.30
71205;BMP180;58935;54.498;18.544;2024-02-21T04:28:07;100457.00;;;6.30
71205;BMP180;58935;54.498;18.544;2024-02-21T04:30:34;100452.00;;;6.34
71205;BMP180;58935;54.498;18.544;2024-02-21T04:33:00;100453.00;;;6.34
71205;BMP180;58935;54.498;18.544;2024-02-21T04:35:27;100447.40;;;6.34
71205;BMP180;58935;54.498;18.544;2024-02-21T04:37:53;100444.40;;;6.32
71205;BMP180;58935;54.498;18.544;2024-02-21T04:40:18;100436.20;;;6.38
71205;BMP180;58935;54.498;18.544;2024-02-21T04:42:44;100431.20;;;6.34
71205;BMP180;58935;54.498;18.544;2024-02-21T04:45:10;100430.20;;;6.36
71205;BMP180;58935;54.498;18.544;2024-02-21T04:47:35;100428.80;;;6.38
71205;BMP180;58935;54.498;18.544;2024-02-21T04:50:01;100425.80;;;6.38
71205;BMP180;58935;54.498;18.544;2024-02-21T04:52:26;100422.20;;;6.40
71205;BMP180;58935;54.498;18.544;2024-02-21T04:54:51;100420.20;;;6.40
71205;BMP180;58935;54.498;18.544;2024-02-21T04:57:17;100411.80;;;6.34
71205;BMP180;58935;54.498;18.544;2024-02-21T04:59:44;100412.60;;;6.30
71205;BMP180;58935;54.498;18.544;2024-02-21T05:02:11;100401.20;;;6.30
71205;BMP180;58935;54.498;18.544;2024-02-21T05:04:36;100400.00;;;6.30
71205;BMP180;58935;54.498;18.544;2024-02-21T05:07:04;100395.80;;;6.30
71205;BMP180;58935;54.498;18.544;2024-02-21T05:09:30;100395.40;;;6.30
71205;BMP180;58935;54.498;18.544;2024-02-21T05:11:56;100389.20;;;6.30
71205;BMP180;58935;54.498;18.544;2024-02-21T05:14:23;100384.20;;;6.30
71205;BMP180;58935;54.498;18.544;2024-02-21T05:16:48;100375.80;;;6.30
71205;BMP180;58935;54.498;18.544;2024-02-21T05:19:16;100371.20;;;6.30
71205;BMP180;58935;54.498;18.544;2024-02-21T05:21:41;100371.00;;;6.30
71205;BMP180;58935;54.498;18.544;2024-02-21T05:24:07;100363.20;;;6.30
71205;BMP180;58935;54.498;18.544;2024-02-21T05:26:32;100359.80;;;6.30
71205;BMP180;58935;54.498;18.544;2024-02-21T05:28:57;100358.20;;;6.30
71205;BMP180;58935;54.498;18.544;2024-02-21T05:31:24;100357.60;;;6.30
71205;BMP180;58935;54.498;18.544;2024-02-21T05:33:50;100357.00;;;6.30
71205;BMP180;58935;54.498;18.544;2024-02-21T05:36:15;100357.20;;;6.30
71205;BMP180;58935;54.498;18.544;2024-02-21T05:38:43;100351.00;;;6.30
71205;BMP180;58935;54.498;18.544;2024-02-21T05:41:08;100350.60;;;6.30
71205;BMP180;58935;54.498;18.544;2024-02-21T05:43:34;100351.40;;;6.30
71205;BMP180;58935;54.498;18.544;2024-02-21T05:45:59;100342.60;;;6.30
71205;BMP180;58935;54.498;18.544;2024-02-21T05:48:25;100339.40;;;6.30
71205;BMP180;58935;54.498;18.544;2024-02-21T05:50:50;100337.80;;;6.46
71205;BMP180;58935;54.498;18.544;2024-02-21T05:53:16;100336.00;;;6.50
71205;BMP180;58935;54.498;18.544;2024-02-21T05:55:41;100316.40;;;6.52
71205;BMP180;58935;54.498;18.544;2024-02-21T05:58:09;100312.20;;;6.60
71205;BMP180;58935;54.498;18.544;2024-02-21T06:00:39;100305.40;;;6.62
71205;BMP180;58935;54.498;18.544;2024-02-21T06:03:04;100307.40;;;6.70
71205;BMP180;58935;54.498;18.544;2024-02-21T06:05:30;100305.60;;;6.60
71205;BMP180;58935;54.498;18.544;2024-02-21T06:07:57;100309.40;;;6.60
71205;BMP180;58935;54.498;18.544;2024-02-21T06:10:22;100306.80;;;6.60
71205;BMP180;58935;54.498;18.544;2024-02-21T06:12:52;100306.20;;;6.52
71205;BMP180;58935;54.498;18.544;2024-02-21T06:15:17;100297.80;;;6.50
71205;BMP180;58935;54.498;18.544;2024-02-21T06:17:43;100296.60;;;6.50
71205;BMP180;58935;54.498;18.544;2024-02-21T06:20:08;100296.80;;;6.50
71205;BMP180;58935;54.498;18.544;2024-02-21T06:22:34;100284.20;;;6.50
71205;BMP180;58935;54.498;18.544;2024-02-21T06:24:59;100282.20;;;6.50
71205;BMP180;58935;54.498;18.544;2024-02-21T06:27:24;100276.60;;;6.50
71205;BMP180;58935;54.498;18.544;2024-02-21T06:29:50;100279.20;;;6.50
71205;BMP180;58935;54.498;18.544;2024-02-21T06:32:16;100281.20;;;6.50
71205;BMP180;58935;54.498;18.544;2024-02-21T06:34:41;100284.20;;;6.50
71205;BMP180;58935;54.498;18.544;2024-02-21T06:37:07;100283.80;;;6.50
71205;BMP180;58935;54.498;18.544;2024-02-21T06:39:32;100283.80;;;6.50
71205;BMP180;58935;54.498;18.544;2024-02-21T06:41:57;100290.00;;;6.50
71205;BMP180;58935;54.498;18.544;2024-02-21T06:44:22;100289.60;;;6.50
71205;BMP180;58935;54.498;18.544;2024-02-21T06:46:48;100292.40;;;6.50
71205;BMP180;58935;54.498;18.544;2024-02-21T06:49:13;100292.80;;;6.50
71205;BMP180;58935;54.498;18.544;2024-02-21T06:51:43;100290.40;;;6.50
71205;BMP180;58935;54.498;18.544;2024-02-21T06:54:09;100295.40;;;6.56
71205;BMP180;58935;54.498;18.544;2024-02-21T06:56:37;100293.00;;;6.60
71205;BMP180;58935;54.498;18.544;2024-02-21T06:59:03;100295.40;;;6.60
71205;BMP180;58935;54.498;18.544;2024-02-21T07:01:29;100302.80;;;6.60
71205;BMP180;58935;54.498;18.544;2024-02-21T07:03:55;100299.60;;;6.68
71205;BMP180;58935;54.498;18.544;2024-02-21T07:06:21;100290.80;;;6.70
71205;BMP180;58935;54.498;18.544;2024-02-21T07:08:47;100284.20;;;6.70
71205;BMP180;58935;54.498;18.544;2024-02-21T07:11:15;100290.60;;;6.70
71205;BMP180;58935;54.498;18.544;2024-02-21T07:13:40;100288.80;;;6.80
71205;BMP180;58935;54.498;18.544;2024-02-21T07:16:08;100282.40;;;6.80
71205;BMP180;58935;54.498;18.544;2024-02-21T07:18:34;100280.60;;;6.80
71205;BMP180;58935;54.498;18.544;2024-02-21T07:20:59;100281.00;;;6.80
71205;BMP180;58935;54.498;18.544;2024-02-21T07:23:25;100281.20;;;6.88
71205;BMP180;58935;54.498;18.544;2024-02-21T07:25:50;100272.00;;;6.90
71205;BMP180;58935;54.498;18.544;2024-02-21T07:28:18;100273.00;;;6.90
71205;BMP180;58935;54.498;18.544;2024-02-21T07:30:44;100269.40;;;6.90
71205;BMP180;58935;54.498;18.544;2024-02-21T07:33:11;100272.20;;;6.92
71205;BMP180;58935;54.498;18.544;2024-02-21T07:35:38;100267.20;;;7.00
71205;BMP180;58935;54.498;18.544;2024-02-21T07:38:06;100262.40;;;7.00
71205;BMP180;58935;54.498;18.544;2024-02-21T07:40:32;100254.60;;;7.00
71205;BMP180;58935;54.498;18.544;2024-02-21T07:43:00;100252.80;;;7.02
71205;BMP180;58935;54.498;18.544;2024-02-21T07:45:25;100251.00;;;7.08
71205;BMP180;58935;54.498;18.544;2024-02-21T07:47:51;100241.40;;;7.10
71205;BMP180;58935;54.498;18.544;2024-02-21T07:50:17;100237.40;;;7.10
71205;BMP180;58935;54.498;18.544;2024-02-21T07:52:43;100229.40;;;7.10
71205;BMP180;58935;54.498;18.544;2024-02-21T07:55:11;100230.20;;;7.10
71205;BMP180;58935;54.498;18.544;2024-02-21T07:57:36;100223.00;;;7.10
71205;BMP180;58935;54.498;18.544;2024-02-21T08:00:03;100221.40;;;7.10
71205;BMP180;58935;54.498;18.544;2024-02-21T08:02:30;100220.80;;;7.10
71205;BMP180;58935;54.498;18.544;2024-02-21T08:05:00;100214.80;;;7.10
71205;BMP180;58935;54.498;18.544;2024-02-21T08:07:25;100216.80;;;7.10
71205;BMP180;58935;54.498;18.544;2024-02-21T08:09:54;100211.00;;;7.10
71205;BMP180;58935;54.498;18.544;2024-02-21T08:12:19;100211.20;;;7.10
71205;BMP180;58935;54.498;18.544;2024-02-21T08:14:45;100205.40;;;7.10
71205;BMP180;58935;54.498;18.544;2024-02-21T08:17:10;100204.80;;;7.10
71205;BMP180;58935;54.498;18.544;2024-02-21T08:19:36;100202.20;;;7.18
71205;BMP180;58935;54.498;18.544;2024-02-21T08:22:03;100197.60;;;7.20
71205;BMP180;58935;54.498;18.544;2024-02-21T08:24:29;100197.60;;;7.20
71205;BMP180;58935;54.498;18.544;2024-02-21T08:26:56;100191.40;;;7.30
71205;BMP180;58935;54.498;18.544;2024-02-21T08:29:25;100188.40;;;7.30
71205;BMP180;58935;54.498;18.544;2024-02-21T08:31:55;100187.40;;;7.30
71205;BMP180;58935;54.498;18.544;2024-02-21T08:34:21;100186.80;;;7.40
71205;BMP180;58935;54.498;18.544;2024-02-21T08:36:49;100181.80;;;7.40
71205;BMP180;58935;54.498;18.544;2024-02-21T08:39:17;100183.00;;;7.40
71205;BMP180;58935;54.498;18.544;2024-02-21T08:41:45;100176.80;;;7.48
71205;BMP180;58935;54.498;18.544;2024-02-21T08:44:10;100171.60;;;7.50
71205;BMP180;58935;54.498;18.544;2024-02-21T08:46:35;100173.00;;;7.50
71205;BMP180;58935;54.498;18.544;2024-02-21T08:49:03;100170.20;;;7.50
71205;BMP180;58935;54.498;18.544;2024-02-21T08:51:28;100171.80;;;7.50
71205;BMP180;58935;54.498;18.544;2024-02-21T08:53:54;100173.20;;;7.54
71205;BMP180;58935;54.498;18.544;2024-02-21T08:56:20;100167.00;;;7.56
71205;BMP180;58935;54.498;18.544;2024-02-21T08:58:47;100168.00;;;7.58
71205;BMP180;58935;54.498;18.544;2024-02-21T09:01:13;100156.80;;;7.60
71205;BMP180;58935;54.498;18.544;2024-02-21T09:03:41;100155.60;;;7.60
71205;BMP180;58935;54.498;18.544;2024-02-21T09:06:10;100161.80;;;7.60
71205;BMP180;58935;54.498;18.544;2024-02-21T09:08:35;100157.40;;;7.60
71205;BMP180;58935;54.498;18.544;2024-02-21T09:14:44;100147.40;;;7.60
71205;BMP180;58935;54.498;18.544;2024-02-21T09:17:10;100156.40;;;7.60
71205;BMP180;58935;54.498;18.544;2024-02-21T09:19:35;100158.80;;;7.60
71205;BMP180;58935;54.498;18.544;2024-02-21T09:27:15;100155.60;;;7.60
71205;BMP180;58935;54.498;18.544;2024-02-21T09:29:41;100150.60;;;7.60
71205;BMP180;58935;54.498;18.544;2024-02-21T09:33:02;100140.60;;;7.70
71205;BMP180;58935;54.498;18.544;2024-02-21T09:35:30;100144.00;;;7.70
71205;BMP180;58935;54.498;18.544;2024-02-21T09:37:59;100138.60;;;7.70
71205;BMP180;58935;54.498;18.544;2024-02-21T09:40:25;100136.80;;;7.80
71205;BMP180;58935;54.498;18.544;2024-02-21T09:43:03;100133.20;;;7.80
71205;BMP180;58935;54.498;18.544;2024-02-21T09:45:29;100131.40;;;7.90
71205;BMP180;58935;54.498;18.544;2024-02-21T09:48:12;100122.40;;;7.90
71205;BMP180;58935;54.498;18.544;2024-02-21T09:50:43;100126.40;;;7.90
71205;BMP180;58935;54.498;18.544;2024-02-21T09:53:18;100125.40;;;7.90
71205;BMP180;58935;54.498;18.544;2024-02-21T09:55:49;100122.00;;;7.92
71205;BMP180;58935;54.498;18.544;2024-02-21T10:00:55;100113.40;;;8.00
71205;BMP180;58935;54.498;18.544;2024-02-21T10:03:22;100113.20;;;8.00
71205;BMP180;58935;54.498;18.544;2024-02-21T10:05:48;100116.00;;;8.00
71205;BMP180;58935;54.498;18.544;2024-02-21T10:08:16;100097.20;;;8.04
71205;BMP180;58935;54.498;18.544;2024-02-21T10:10:45;100106.80;;;8.10
71205;BMP180;58935;54.498;18.544;2024-02-21T10:13:25;100102.80;;;8.20
71205;BMP180;58935;54.498;18.544;2024-02-21T10:16:02;100100.60;;;8.30
71205;BMP180;58935;54.498;18.544;2024-02-21T10:18:28;100105.80;;;8.40
71205;BMP180;58935;54.498;18.544;2024-02-21T10:21:00;100097.80;;;8.50
71205;BMP180;58935;54.498;18.544;2024-02-21T10:23:26;100087.40;;;8.56
71205;BMP180;58935;54.498;18.544;2024-02-21T10:25:51;100085.60;;;8.60
71205;BMP180;58935;54.498;18.544;2024-02-21T10:28:19;100085.20;;;8.60
71205;BMP180;58935;54.498;18.544;2024-02-21T10:30:50;100083.40;;;8.70
71205;BMP180;58935;54.498;18.544;2024-02-21T10:33:19;100084.00;;;8.80
71205;BMP180;58935;54.498;18.544;2024-02-21T10:35:47;100085.80;;;8.80
71205;BMP180;58935;54.498;18.544;2024-02-21T10:38:13;100082.20;;;8.84
71205;BMP180;58935;54.498;18.544;2024-02-21T10:40:38;100056.40;;;8.88
71205;BMP180;58935;54.498;18.544;2024-02-21T10:43:06;100057.40;;;8.90
71205;BMP180;58935;54.498;18.544;2024-02-21T10:45:41;100059.80;;;8.90
71205;BMP180;58935;54.498;18.544;2024-02-21T10:48:12;100056.40;;;8.94
71205;BMP180;58935;54.498;18.544;2024-02-21T10:50:47;100053.60;;;9.00
71205;BMP180;58935;54.498;18.544;2024-02-21T10:56:11;100042.20;;;9.00
71205;BMP180;58935;54.498;18.544;2024-02-21T10:58:39;100055.20;;;8.90
71205;BMP180;58935;54.498;18.544;2024-02-21T11:01:05;100044.80;;;8.90
71205;BMP180;58935;54.498;18.544;2024-02-21T11:03:31;100049.00;;;8.82
71205;BMP180;58935;54.498;18.544;2024-02-21T11:05:58;100060.40;;;8.80
71205;BMP180;58935;54.498;18.544;2024-02-21T11:08:24;100051.20;;;8.80
71205;BMP180;58935;54.498;18.544;2024-02-21T11:10:59;100055.80;;;8.74
71205;BMP180;58935;54.498;18.544;2024-02-21T11:13:34;100055.20;;;8.70
71205;BMP180;58935;54.498;18.544;2024-02-21T11:23:55;100032.60;;;8.50
71205;BMP180;58935;54.498;18.544;2024-02-21T11:26:20;100041.60;;;8.50
71205;BMP180;58935;54.498;18.544;2024-02-21T11:28:58;100042.80;;;8.50
71205;BMP180;58935;54.498;18.544;2024-02-21T11:31:25;100038.60;;;8.42
71205;BMP180;58935;54.498;18.544;2024-02-21T11:33:53;100033.20;;;8.44
71205;BMP180;58935;54.498;18.544;2024-02-21T11:36:25;100026.20;;;8.50
71205;BMP180;58935;54.498;18.544;2024-02-21T11:38:51;100021.00;;;8.50
71205;BMP180;58935;54.498;18.544;2024-02-21T11:41:20;100018.20;;;8.50
71205;BMP180;58935;54.498;18.544;2024-02-21T11:43:49;100008.80;;;8.52
71205;BMP180;58935;54.498;18.544;2024-02-21T11:46:18;99998.40;;;8.56
71205;BMP180;58935;54.498;18.544;2024-02-21T11:48:44;99993.40;;;8.60
71205;BMP180;58935;54.498;18.544;2024-02-21T11:51:24;100000.40;;;8.60
71205;BMP180;58935;54.498;18.544;2024-02-21T11:53:53;99987.80;;;8.68
71205;BMP180;58935;54.498;18.544;2024-02-21T11:56:19;99982.80;;;8.70
71205;BMP180;58935;54.498;18.544;2024-02-21T11:58:48;99976.60;;;8.70
71205;BMP180;58935;54.498;18.544;2024-02-21T12:01:17;99982.20;;;8.80
71205;BMP180;58935;54.498;18.544;2024-02-21T12:03:45;99980.00;;;8.90
71205;BMP180;58935;54.498;18.544;2024-02-21T12:06:16;99970.80;;;9.08
71205;BMP180;58935;54.498;18.544;2024-02-21T12:08:46;99963.00;;;9.20
71205;BMP180;58935;54.498;18.544;2024-02-21T12:11:23;99945.00;;;9.30
71205;BMP180;58935;54.498;18.544;2024-02-21T12:16:24;99956.20;;;9.50
71205;BMP180;58935;54.498;18.544;2024-02-21T12:18:53;99956.20;;;9.60
71205;BMP180;58935;54.498;18.544;2024-02-21T12:21:26;99942.00;;;9.70
71205;BMP180;58935;54.498;18.544;2024-02-21T12:26:30;99944.20;;;9.80
71205;BMP180;58935;54.498;18.544;2024-02-21T12:28:55;99943.40;;;9.90
71205;BMP180;58935;54.498;18.544;2024-02-21T12:31:22;99942.00;;;10.00
71205;BMP180;58935;54.498;18.544;2024-02-21T12:33:48;99936.00;;;10.10
71205;BMP180;58935;54.498;18.544;2024-02-21T12:36:13;99924.80;;;10.14
71205;BMP180;58935;54.498;18.544;2024-02-21T12:38:39;99929.20;;;10.10
71205;BMP180;58935;54.498;18.544;2024-02-21T12:41:06;99910.00;;;10.18
71205;BMP180;58935;54.498;18.544;2024-02-21T12:43:34;99910.60;;;10.20
71205;BMP180;58935;54.498;18.544;2024-02-21T12:46:02;99922.00;;;10.20
71205;BMP180;58935;54.498;18.544;2024-02-21T12:48:27;99916.40;;;10.24
71205;BMP180;58935;54.498;18.544;2024-02-21T12:50:53;99914.40;;;10.30
71205;BMP180;58935;54.498;18.544;2024-02-21T12:53:21;99912.20;;;10.30
71205;BMP180;58935;54.498;18.544;2024-02-21T12:55:48;99908.40;;;10.30
71205;BMP180;58935;54.498;18.544;2024-02-21T12:58:14;99899.40;;;10.30
71205;BMP180;58935;54.498;18.544;2024-02-21T13:00:41;99894.60;;;10.30
71205;BMP180;58935;54.498;18.544;2024-02-21T13:03:07;99907.00;;;10.30
71205;BMP180;58935;54.498;18.544;2024-02-21T13:05:35;99888.20;;;10.40
71205;BMP180;58935;54.498;18.544;2024-02-21T13:08:00;99906.20;;;10.50
71205;BMP180;58935;54.498;18.544;2024-02-21T13:10:26;99881.80;;;10.60
71205;BMP180;58935;54.498;18.544;2024-02-21T13:12:51;99891.80;;;10.60
71205;BMP180;58935;54.498;18.544;2024-02-21T13:15:20;99884.80;;;10.70
71205;BMP180;58935;54.498;18.544;2024-02-21T13:17:46;99887.80;;;10.70
71205;BMP180;58935;54.498;18.544;2024-02-21T13:22:51;99893.20;;;10.60
71205;BMP180;58935;54.498;18.544;2024-02-21T13:25:16;99896.20;;;10.50
71205;BMP180;58935;54.498;18.544;2024-02-21T13:27:45;99888.00;;;10.34
71205;BMP180;58935;54.498;18.544;2024-02-21T13:30:11;99890.20;;;10.22
71205;BMP180;58935;54.498;18.544;2024-02-21T13:32:38;99889.60;;;10.10
71205;BMP180;58935;54.498;18.544;2024-02-21T13:35:04;99883.60;;;10.04
71205;BMP180;58935;54.498;18.544;2024-02-21T13:37:29;99894.40;;;10.00
71205;BMP180;58935;54.498;18.544;2024-02-21T13:39:55;99871.60;;;9.90
71205;BMP180;58935;54.498;18.544;2024-02-21T13:42:21;99871.80;;;9.88
71205;BMP180;58935;54.498;18.544;2024-02-21T13:44:46;99886.40;;;9.80
71205;BMP180;58935;54.498;18.544;2024-02-21T13:47:14;99872.00;;;9.70
71205;BMP180;58935;54.498;18.544;2024-02-21T13:49:41;99882.20;;;9.50
71205;BMP180;58935;54.498;18.544;2024-02-21T13:52:07;99891.60;;;9.30
71205;BMP180;58935;54.498;18.544;2024-02-21T13:54:34;99887.20;;;9.16
71205;BMP180;58935;54.498;18.544;2024-02-21T13:57:00;99884.40;;;9.00
71205;BMP180;58935;54.498;18.544;2024-02-21T13:59:28;99894.00;;;8.80
71205;BMP180;58935;54.498;18.544;2024-02-21T14:01:53;99885.00;;;8.70
71205;BMP180;58935;54.498;18.544;2024-02-21T14:04:21;99904.20;;;8.60
71205;BMP180;58935;54.498;18.544;2024-02-21T14:06:47;99894.80;;;8.50
71205;BMP180;58935;54.498;18.544;2024-02-21T14:09:12;99886.80;;;8.40
71205;BMP180;58935;54.498;18.544;2024-02-21T14:14:11;99876.80;;;8.20
71205;BMP180;58935;54.498;18.544;2024-02-21T14:16:36;99867.20;;;8.20
71205;BMP180;58935;54.498;18.544;2024-02-21T14:19:02;99875.80;;;8.14
71205;BMP180;58935;54.498;18.544;2024-02-21T14:21:27;99876.60;;;8.10
71205;BMP180;58935;54.498;18.544;2024-02-21T14:23:56;99876.00;;;8.10
71205;BMP180;58935;54.498;18.544;2024-02-21T14:26:24;99870.40;;;8.10
71205;BMP180;58935;54.498;18.544;2024-02-21T14:28:49;99865.40;;;8.10